sensor_id;sensor_type;location;lat;lon;timestamp;P1;durP1;ratioP1;P2;durP2;ratioP2
823;SDS011;373;49.342;8.146;2023-04-03T00:00:52;1.20;;;1.10;;
823;SDS011;373;49.342;8.146;2023-04-03T00:03:19;1.40;;;1.30;;
823;SDS011;373;49.342;8.146;2023-04-03T00:05:47;2.05;;;1.67;;
823;SDS011;373;49.342;8.146;2023-04-03T00:08:15;2.63;;;1.85;;
823;SDS011;373;49.342;8.146;2023-04-03T00:10:42;2.20;;;1.98;;
823;SDS011;373;49.342;8.146;2023-04-03T00:13:09;3.05;;;1.52;;
823;SDS011;373;49.342;8.146;2023-04-03T00:15:37;1.80;;;1.70;;
823;SDS011;373;49.342;8.146;2023-04-03T00:18:06;2.65;;;1.45;;
823;SDS011;373;49.342;8.146;2023-04-03T00:20:33;2.20;;;1.60;;
823;SDS011;373;49.342;8.146;2023-04-03T00:23:01;1.55;;;1.45;;
823;SDS011;373;49.342;8.146;2023-04-03T00:25:30;2.03;;;1.33;;
823;SDS011;373;49.342;8.146;2023-04-03T00:27:57;2.47;;;1.40;;
823;SDS011;373;49.342;8.146;2023-04-03T00:30:24;1.60;;;1.50;;
823;SDS011;373;49.342;8.146;2023-04-03T00:32:52;2.30;;;1.60;;
823;SDS011;373;49.342;8.146;2023-04-03T00:35:20;1.92;;;1.60;;
823;SDS011;373;49.342;8.146;2023-04-03T00:37:50;3.00;;;1.55;;
823;SDS011;373;49.342;8.146;2023-04-03T00:40:17;2.90;;;1.30;;
823;SDS011;373;49.342;8.146;2023-04-03T00:42:46;2.33;;;1.52;;
823;SDS011;373;49.342;8.146;2023-04-03T00:45:25;3.33;;;2.00;;
823;SDS011;373;49.342;8.146;2023-04-03T00:47:55;2.60;;;1.75;;
823;SDS011;373;49.342;8.146;2023-04-03T00:50:24;2.90;;;1.90;;
823;SDS011;373;49.342;8.146;2023-04-03T00:52:52;2.10;;;1.90;;
823;SDS011;373;49.342;8.146;2023-04-03T00:55:20;2.17;;;1.98;;
823;SDS011;373;49.342;8.146;2023-04-03T00:57:49;2.20;;;1.65;;
823;SDS011;373;49.342;8.146;2023-04-03T01:00:19;3.53;;;2.15;;
823;SDS011;373;49.342;8.146;2023-04-03T01:02:47;2.60;;;1.85;;
823;SDS011;373;49.342;8.146;2023-04-03T01:05:15;2.28;;;1.80;;
823;SDS011;373;49.342;8.146;2023-04-03T01:07:43;2.95;;;1.77;;
823;SDS011;373;49.342;8.146;2023-04-03T01:10:12;3.88;;;1.98;;
823;SDS011;373;49.342;8.146;2023-04-03T01:12:43;3.13;;;1.98;;
823;SDS011;373;49.342;8.146;2023-04-03T01:15:14;2.13;;;1.70;;
823;SDS011;373;49.342;8.146;2023-04-03T01:17:44;3.03;;;1.70;;
823;SDS011;373;49.342;8.146;2023-04-03T01:23:22;3.97;;;2.25;;
823;SDS011;373;49.342;8.146;2023-04-03T01:25:56;2.42;;;1.80;;
823;SDS011;373;49.342;8.146;2023-04-03T01:28:24;3.35;;;1.58;;
823;SDS011;373;49.342;8.146;2023-04-03T01:31:00;2.97;;;1.60;;
823;SDS011;373;49.342;8.146;2023-04-03T01:33:36;2.33;;;1.65;;
823;SDS011;373;49.342;8.146;2023-04-03T01:36:05;2.30;;;1.75;;
823;SDS011;373;49.342;8.146;2023-04-03T01:38:34;1.98;;;1.77;;
823;SDS011;373;49.342;8.146;2023-04-03T01:41:01;2.58;;;2.28;;
823;SDS011;373;49.342;8.146;2023-04-03T01:43:29;2.22;;;1.80;;
823;SDS011;373;49.342;8.146;2023-04-03T01:45:56;2.50;;;1.60;;
823;SDS011;373;49.342;8.146;2023-04-03T01:48:23;2.42;;;1.58;;
823;SDS011;373;49.342;8.146;2023-04-03T01:50:52;2.03;;;1.65;;
823;SDS011;373;49.342;8.146;2023-04-03T01:53:20;2.00;;;1.60;;
823;SDS011;373;49.342;8.146;2023-04-03T01:55:47;2.17;;;1.70;;
823;SDS011;373;49.342;8.146;2023-04-03T01:58:15;2.00;;;1.90;;
823;SDS011;373;49.342;8.146;2023-04-03T02:00:42;2.88;;;1.80;;
823;SDS011;373;49.342;8.146;2023-04-03T02:03:09;2.20;;;2.00;;
823;SDS011;373;49.342;8.146;2023-04-03T02:05:37;2.83;;;1.85;;
823;SDS011;373;49.342;8.146;2023-04-03T02:08:06;2.58;;;1.92;;
823;SDS011;373;49.342;8.146;2023-04-03T02:10:34;2.17;;;1.80;;
823;SDS011;373;49.342;8.146;2023-04-03T02:13:01;2.10;;;2.00;;
823;SDS011;373;49.342;8.146;2023-04-03T02:15:28;2.13;;;1.92;;
823;SDS011;373;49.342;8.146;2023-04-03T02:17:55;2.60;;;2.17;;
823;SDS011;373;49.342;8.146;2023-04-03T02:20:22;2.22;;;1.70;;
823;SDS011;373;49.342;8.146;2023-04-03T02:22:49;1.92;;;1.83;;
823;SDS011;373;49.342;8.146;2023-04-03T02:25:18;2.42;;;2.08;;
823;SDS011;373;49.342;8.146;2023-04-03T02:27:45;2.17;;;1.77;;
823;SDS011;373;49.342;8.146;2023-04-03T02:30:12;2.67;;;1.73;;
823;SDS011;373;49.342;8.146;2023-04-03T02:32:40;2.45;;;2.25;;
823;SDS011;373;49.342;8.146;2023-04-03T02:35:08;2.65;;;2.13;;
823;SDS011;373;49.342;8.146;2023-04-03T02:37:36;3.70;;;2.13;;
823;SDS011;373;49.342;8.146;2023-04-03T02:40:03;3.25;;;2.00;;
823;SDS011;373;49.342;8.146;2023-04-03T02:42:33;2.70;;;2.40;;
823;SDS011;373;49.342;8.146;2023-04-03T02:45:02;2.65;;;2.45;;
823;SDS011;373;49.342;8.146;2023-04-03T02:47:30;2.13;;;1.85;;
823;SDS011;373;49.342;8.146;2023-04-03T02:49:57;3.08;;;2.35;;
823;SDS011;373;49.342;8.146;2023-04-03T02:52:24;2.60;;;2.38;;
823;SDS011;373;49.342;8.146;2023-04-03T02:54:54;2.20;;;2.00;;
823;SDS011;373;49.342;8.146;2023-04-03T02:57:21;2.92;;;1.85;;
823;SDS011;373;49.342;8.146;2023-04-03T02:59:50;3.20;;;2.38;;
823;SDS011;373;49.342;8.146;2023-04-03T03:02:17;8.32;;;2.15;;
823;SDS011;373;49.342;8.146;2023-04-03T03:04:44;2.22;;;2.03;;
823;SDS011;373;49.342;8.146;2023-04-03T03:07:12;2.53;;;2.33;;
823;SDS011;373;49.342;8.146;2023-04-03T03:09:40;4.15;;;2.22;;
823;SDS011;373;49.342;8.146;2023-04-03T03:12:07;3.28;;;2.22;;
823;SDS011;373;49.342;8.146;2023-04-03T03:14:34;4.10;;;2.40;;
823;SDS011;373;49.342;8.146;2023-04-03T03:17:02;3.20;;;2.15;;
823;SDS011;373;49.342;8.146;2023-04-03T03:19:29;5.07;;;2.72;;
823;SDS011;373;49.342;8.146;2023-04-03T03:21:56;5.57;;;2.10;;
823;SDS011;373;49.342;8.146;2023-04-03T03:24:23;3.42;;;2.65;;
823;SDS011;373;49.342;8.146;2023-04-03T03:26:50;2.60;;;2.03;;
823;SDS011;373;49.342;8.146;2023-04-03T03:29:18;2.42;;;1.85;;
823;SDS011;373;49.342;8.146;2023-04-03T03:31:45;3.25;;;2.22;;
823;SDS011;373;49.342;8.146;2023-04-03T03:34:14;2.45;;;2.25;;
823;SDS011;373;49.342;8.146;2023-04-03T03:36:41;2.33;;;1.77;;
823;SDS011;373;49.342;8.146;2023-04-03T03:39:09;4.57;;;2.33;;
823;SDS011;373;49.342;8.146;2023-04-03T03:41:36;2.03;;;1.83;;
823;SDS011;373;49.342;8.146;2023-04-03T03:44:04;3.60;;;2.08;;
823;SDS011;373;49.342;8.146;2023-04-03T03:46:32;3.00;;;2.28;;
823;SDS011;373;49.342;8.146;2023-04-03T03:48:59;2.28;;;2.08;;
823;SDS011;373;49.342;8.146;2023-04-03T03:51:28;4.10;;;2.15;;
823;SDS011;373;49.342;8.146;2023-04-03T03:53:56;2.28;;;2.03;;
823;SDS011;373;49.342;8.146;2023-04-03T03:56:24;2.65;;;2.30;;
823;SDS011;373;49.342;8.146;2023-04-03T03:58:52;2.90;;;2.22;;
823;SDS011;373;49.342;8.146;2023-04-03T04:01:21;2.97;;;2.10;;
823;SDS011;373;49.342;8.146;2023-04-03T04:03:50;1.83;;;1.73;;
823;SDS011;373;49.342;8.146;2023-04-03T04:06:22;2.10;;;1.90;;
823;SDS011;373;49.342;8.146;2023-04-03T04:08:52;2.38;;;2.17;;
823;SDS011;373;49.342;8.146;2023-04-03T04:11:19;2.55;;;2.05;;
823;SDS011;373;49.342;8.146;2023-04-03T04:13:49;2.63;;;1.90;;
823;SDS011;373;49.342;8.146;2023-04-03T04:16:18;2.30;;;2.10;;
823;SDS011;373;49.342;8.146;2023-04-03T04:18:45;2.08;;;1.92;;
823;SDS011;373;49.342;8.146;2023-04-03T04:21:13;2.70;;;2.08;;
823;SDS011;373;49.342;8.146;2023-04-03T04:23:41;3.45;;;2.13;;
823;SDS011;373;49.342;8.146;2023-04-03T04:26:09;2.50;;;1.92;;
823;SDS011;373;49.342;8.146;2023-04-03T04:28:38;3.00;;;2.50;;
823;SDS011;373;49.342;8.146;2023-04-03T04:31:06;2.50;;;2.28;;
823;SDS011;373;49.342;8.146;2023-04-03T04:33:33;2.30;;;1.80;;
823;SDS011;373;49.342;8.146;2023-04-03T04:36:03;3.83;;;2.25;;
823;SDS011;373;49.342;8.146;2023-04-03T04:38:31;2.90;;;2.20;;
823;SDS011;373;49.342;8.146;2023-04-03T04:40:58;3.13;;;1.98;;
823;SDS011;373;49.342;8.146;2023-04-03T04:43:27;2.65;;;1.90;;
823;SDS011;373;49.342;8.146;2023-04-03T04:46:01;2.13;;;1.92;;
823;SDS011;373;49.342;8.146;2023-04-03T04:48:31;2.08;;;1.88;;
823;SDS011;373;49.342;8.146;2023-04-03T04:50:59;3.45;;;2.58;;
823;SDS011;373;49.342;8.146;2023-04-03T04:53:26;2.38;;;2.00;;
823;SDS011;373;49.342;8.146;2023-04-03T04:55:54;2.80;;;2.53;;
823;SDS011;373;49.342;8.146;2023-04-03T04:58:21;2.28;;;1.92;;
823;SDS011;373;49.342;8.146;2023-04-03T05:00:51;2.35;;;2.10;;
823;SDS011;373;49.342;8.146;2023-04-03T05:03:25;3.13;;;2.30;;
823;SDS011;373;49.342;8.146;2023-04-03T05:05:52;4.28;;;2.35;;
823;SDS011;373;49.342;8.146;2023-04-03T05:08:19;2.55;;;1.83;;
823;SDS011;373;49.342;8.146;2023-04-03T05:10:46;4.05;;;2.30;;
823;SDS011;373;49.342;8.146;2023-04-03T05:13:15;2.55;;;2.28;;
823;SDS011;373;49.342;8.146;2023-04-03T05:15:42;3.92;;;1.85;;
823;SDS011;373;49.342;8.146;2023-04-03T05:18:10;2.53;;;1.90;;
823;SDS011;373;49.342;8.146;2023-04-03T05:20:37;3.10;;;2.08;;
823;SDS011;373;49.342;8.146;2023-04-03T05:23:05;2.67;;;2.10;;
823;SDS011;373;49.342;8.146;2023-04-03T05:25:34;2.25;;;1.90;;
823;SDS011;373;49.342;8.146;2023-04-03T05:28:04;2.80;;;2.20;;
823;SDS011;373;49.342;8.146;2023-04-03T05:30:31;2.28;;;2.08;;
823;SDS011;373;49.342;8.146;2023-04-03T05:33:00;3.42;;;2.70;;
823;SDS011;373;49.342;8.146;2023-04-03T05:35:38;2.50;;;2.30;;
823;SDS011;373;49.342;8.146;2023-04-03T05:38:09;2.90;;;2.40;;
823;SDS011;373;49.342;8.146;2023-04-03T05:40:37;2.97;;;2.25;;
823;SDS011;373;49.342;8.146;2023-04-03T05:43:05;2.65;;;2.15;;
823;SDS011;373;49.342;8.146;2023-04-03T05:45:35;3.25;;;2.40;;
823;SDS011;373;49.342;8.146;2023-04-03T05:48:03;2.55;;;1.90;;
823;SDS011;373;49.342;8.146;2023-04-03T05:50:31;2.55;;;2.30;;
823;SDS011;373;49.342;8.146;2023-04-03T05:52:59;2.85;;;1.83;;
823;SDS011;373;49.342;8.146;2023-04-03T05:55:31;2.10;;;1.88;;
823;SDS011;373;49.342;8.146;2023-04-03T05:57:59;2.63;;;1.73;;
823;SDS011;373;49.342;8.146;2023-04-03T06:00:26;2.78;;;2.25;;
823;SDS011;373;49.342;8.146;2023-04-03T06:03:00;3.20;;;2.22;;
823;SDS011;373;49.342;8.146;2023-04-03T06:05:28;2.13;;;1.95;;
823;SDS011;373;49.342;8.146;2023-04-03T06:07:55;2.90;;;2.10;;
823;SDS011;373;49.342;8.146;2023-04-03T06:10:23;4.00;;;2.55;;
823;SDS011;373;49.342;8.146;2023-04-03T06:12:51;2.92;;;2.13;;
823;SDS011;373;49.342;8.146;2023-04-03T06:15:18;3.70;;;2.60;;
823;SDS011;373;49.342;8.146;2023-04-03T06:17:45;2.80;;;2.03;;
823;SDS011;373;49.342;8.146;2023-04-03T06:20:12;3.38;;;2.30;;
823;SDS011;373;49.342;8.146;2023-04-03T06:22:40;2.33;;;2.10;;
823;SDS011;373;49.342;8.146;2023-04-03T06:25:07;1.85;;;1.70;;
823;SDS011;373;49.342;8.146;2023-04-03T06:27:37;2.33;;;2.13;;
823;SDS011;373;49.342;8.146;2023-04-03T06:30:05;1.80;;;1.70;;
823;SDS011;373;49.342;8.146;2023-04-03T06:32:33;2.40;;;2.10;;
823;SDS011;373;49.342;8.146;2023-04-03T06:35:01;2.80;;;2.00;;
823;SDS011;373;49.342;8.146;2023-04-03T06:37:28;2.40;;;2.20;;
823;SDS011;373;49.342;8.146;2023-04-03T06:39:55;3.80;;;2.00;;
823;SDS011;373;49.342;8.146;2023-04-03T06:42:23;2.30;;;1.95;;
823;SDS011;373;49.342;8.146;2023-04-03T06:45:01;2.15;;;1.95;;
823;SDS011;373;49.342;8.146;2023-04-03T06:47:28;3.03;;;2.42;;
823;SDS011;373;49.342;8.146;2023-04-03T06:49:55;3.08;;;2.28;;
823;SDS011;373;49.342;8.146;2023-04-03T06:52:22;3.20;;;2.15;;
823;SDS011;373;49.342;8.146;2023-04-03T06:54:49;2.72;;;1.60;;
823;SDS011;373;49.342;8.146;2023-04-03T06:57:22;4.97;;;2.00;;
823;SDS011;373;49.342;8.146;2023-04-03T06:59:49;3.47;;;1.77;;
823;SDS011;373;49.342;8.146;2023-04-03T07:02:18;2.53;;;1.98;;
823;SDS011;373;49.342;8.146;2023-04-03T07:04:46;3.17;;;2.00;;
823;SDS011;373;49.342;8.146;2023-04-03T07:07:13;2.78;;;2.08;;
823;SDS011;373;49.342;8.146;2023-04-03T07:09:40;2.65;;;1.92;;
823;SDS011;373;49.342;8.146;2023-04-03T07:12:08;2.30;;;1.90;;
823;SDS011;373;49.342;8.146;2023-04-03T07:14:36;2.08;;;1.63;;
823;SDS011;373;49.342;8.146;2023-04-03T07:17:03;2.50;;;2.30;;
823;SDS011;373;49.342;8.146;2023-04-03T07:19:32;5.47;;;2.30;;
823;SDS011;373;49.342;8.146;2023-04-03T07:21:59;2.20;;;1.88;;
823;SDS011;373;49.342;8.146;2023-04-03T07:24:26;4.47;;;2.63;;
823;SDS011;373;49.342;8.146;2023-04-03T07:26:53;2.90;;;2.25;;
823;SDS011;373;49.342;8.146;2023-04-03T07:29:20;3.25;;;1.95;;
823;SDS011;373;49.342;8.146;2023-04-03T07:31:48;3.28;;;2.25;;
823;SDS011;373;49.342;8.146;2023-04-03T07:34:15;2.42;;;2.22;;
823;SDS011;373;49.342;8.146;2023-04-03T07:36:43;3.60;;;2.20;;
823;SDS011;373;49.342;8.146;2023-04-03T07:39:11;2.83;;;1.75;;
823;SDS011;373;49.342;8.146;2023-04-03T07:41:38;3.30;;;2.30;;
823;SDS011;373;49.342;8.146;2023-04-03T07:44:05;2.67;;;2.15;;
823;SDS011;373;49.342;8.146;2023-04-03T07:46:35;4.18;;;1.88;;
823;SDS011;373;49.342;8.146;2023-04-03T07:49:02;2.38;;;1.83;;
823;SDS011;373;49.342;8.146;2023-04-03T07:51:29;5.82;;;2.45;;
823;SDS011;373;49.342;8.146;2023-04-03T07:53:57;3.03;;;2.13;;
823;SDS011;373;49.342;8.146;2023-04-03T07:56:25;3.10;;;2.03;;
823;SDS011;373;49.342;8.146;2023-04-03T07:58:52;3.63;;;2.30;;
823;SDS011;373;49.342;8.146;2023-04-03T08:01:19;4.05;;;2.55;;
823;SDS011;373;49.342;8.146;2023-04-03T08:03:46;4.53;;;2.60;;
823;SDS011;373;49.342;8.146;2023-04-03T08:06:13;3.30;;;2.40;;
823;SDS011;373;49.342;8.146;2023-04-03T08:08:41;2.03;;;1.83;;
823;SDS011;373;49.342;8.146;2023-04-03T08:11:10;4.38;;;2.30;;
823;SDS011;373;49.342;8.146;2023-04-03T08:13:37;3.58;;;2.20;;
823;SDS011;373;49.342;8.146;2023-04-03T08:16:07;2.42;;;2.13;;
823;SDS011;373;49.342;8.146;2023-04-03T08:18:37;3.67;;;2.35;;
823;SDS011;373;49.342;8.146;2023-04-03T08:21:08;2.30;;;2.10;;
823;SDS011;373;49.342;8.146;2023-04-03T08:23:36;2.95;;;2.30;;
823;SDS011;373;49.342;8.146;2023-04-03T08:26:08;2.47;;;2.28;;
823;SDS011;373;49.342;8.146;2023-04-03T08:28:38;4.55;;;2.33;;
823;SDS011;373;49.342;8.146;2023-04-03T08:31:06;2.97;;;2.45;;
823;SDS011;373;49.342;8.146;2023-04-03T08:33:36;3.78;;;2.25;;
823;SDS011;373;49.342;8.146;2023-04-03T08:36:03;3.55;;;2.33;;
823;SDS011;373;49.342;8.146;2023-04-03T08:38:31;2.40;;;2.20;;
823;SDS011;373;49.342;8.146;2023-04-03T08:41:03;2.50;;;2.13;;
823;SDS011;373;49.342;8.146;2023-04-03T08:43:40;3.63;;;1.98;;
823;SDS011;373;49.342;8.146;2023-04-03T08:46:20;3.75;;;1.60;;
823;SDS011;373;49.342;8.146;2023-04-03T08:48:52;2.42;;;1.70;;
823;SDS011;373;49.342;8.146;2023-04-03T08:51:21;2.25;;;1.52;;
823;SDS011;373;49.342;8.146;2023-04-03T08:53:52;2.78;;;1.73;;
823;SDS011;373;49.342;8.146;2023-04-03T08:56:24;1.50;;;1.40;;
823;SDS011;373;49.342;8.146;2023-04-03T08:58:55;2.78;;;1.60;;
823;SDS011;373;49.342;8.146;2023-04-03T09:01:24;3.72;;;2.08;;
823;SDS011;373;49.342;8.146;2023-04-03T09:03:56;2.90;;;1.25;;
823;SDS011;373;49.342;8.146;2023-04-03T09:06:24;3.30;;;1.30;;
823;SDS011;373;49.342;8.146;2023-04-03T09:08:57;1.63;;;1.17;;
823;SDS011;373;49.342;8.146;2023-04-03T09:11:36;4.22;;;1.50;;
823;SDS011;373;49.342;8.146;2023-04-03T09:14:15;2.10;;;1.40;;
823;SDS011;373;49.342;8.146;2023-04-03T09:16:49;2.95;;;1.30;;
823;SDS011;373;49.342;8.146;2023-04-03T09:19:22;2.10;;;1.20;;
823;SDS011;373;49.342;8.146;2023-04-03T09:22:01;3.40;;;1.27;;
823;SDS011;373;49.342;8.146;2023-04-03T09:24:37;2.65;;;1.10;;
823;SDS011;373;49.342;8.146;2023-04-03T09:27:06;1.08;;;0.88;;
823;SDS011;373;49.342;8.146;2023-04-03T09:29:39;2.17;;;1.20;;
823;SDS011;373;49.342;8.146;2023-04-03T09:32:17;2.42;;;1.20;;
823;SDS011;373;49.342;8.146;2023-04-03T09:34:47;3.25;;;1.38;;
823;SDS011;373;49.342;8.146;2023-04-03T09:40:04;1.73;;;0.75;;
823;SDS011;373;49.342;8.146;2023-04-03T09:42:32;2.38;;;0.90;;
823;SDS011;373;49.342;8.146;2023-04-03T09:45:18;2.08;;;0.90;;
823;SDS011;373;49.342;8.146;2023-04-03T09:47:50;4.25;;;1.15;;
823;SDS011;373;49.342;8.146;2023-04-03T09:50:34;1.38;;;1.27;;
823;SDS011;373;49.342;8.146;2023-04-03T09:53:05;1.60;;;1.10;;
823;SDS011;373;49.342;8.146;2023-04-03T09:55:41;2.15;;;1.05;;
823;SDS011;373;49.342;8.146;2023-04-03T09:58:22;1.65;;;1.10;;
823;SDS011;373;49.342;8.146;2023-04-03T10:00:57;2.63;;;1.23;;
823;SDS011;373;49.342;8.146;2023-04-03T10:03:28;3.53;;;1.08;;
823;SDS011;373;49.342;8.146;2023-04-03T10:05:56;2.25;;;1.30;;
823;SDS011;373;49.342;8.146;2023-04-03T10:08:25;1.92;;;0.82;;
823;SDS011;373;49.342;8.146;2023-04-03T10:11:05;2.30;;;1.30;;
823;SDS011;373;49.342;8.146;2023-04-03T10:13:35;1.42;;;0.93;;
823;SDS011;373;49.342;8.146;2023-04-03T10:16:04;1.10;;;1.00;;
823;SDS011;373;49.342;8.146;2023-04-03T10:18:37;1.20;;;0.98;;
823;SDS011;373;49.342;8.146;2023-04-03T10:21:13;3.45;;;1.17;;
823;SDS011;373;49.342;8.146;2023-04-03T10:23:47;2.28;;;1.10;;
823;SDS011;373;49.342;8.146;2023-04-03T10:26:23;4.05;;;0.93;;
823;SDS011;373;49.342;8.146;2023-04-03T10:29:00;2.22;;;1.10;;
823;SDS011;373;49.342;8.146;2023-04-03T10:31:36;1.63;;;1.02;;
823;SDS011;373;49.342;8.146;2023-04-03T10:34:11;1.65;;;1.30;;
823;SDS011;373;49.342;8.146;2023-04-03T10:36:49;1.17;;;0.82;;
823;SDS011;373;49.342;8.146;2023-04-03T10:39:23;2.53;;;1.15;;
823;SDS011;373;49.342;8.146;2023-04-03T10:41:59;2.25;;;1.08;;
823;SDS011;373;49.342;8.146;2023-04-03T10:44:36;2.45;;;1.10;;
823;SDS011;373;49.342;8.146;2023-04-03T10:47:11;2.20;;;1.30;;
823;SDS011;373;49.342;8.146;2023-04-03T10:49:48;2.50;;;1.25;;
823;SDS011;373;49.342;8.146;2023-04-03T10:52:22;3.47;;;1.17;;
823;SDS011;373;49.342;8.146;2023-04-03T10:54:56;1.23;;;0.90;;
823;SDS011;373;49.342;8.146;2023-04-03T10:57:32;2.45;;;1.08;;
823;SDS011;373;49.342;8.146;2023-04-03T11:00:02;2.47;;;1.30;;
823;SDS011;373;49.342;8.146;2023-04-03T11:02:36;1.42;;;1.10;;
823;SDS011;373;49.342;8.146;2023-04-03T11:05:14;2.70;;;1.13;;
823;SDS011;373;49.342;8.146;2023-04-03T11:07:45;4.88;;;1.45;;
823;SDS011;373;49.342;8.146;2023-04-03T11:10:17;2.22;;;1.05;;
823;SDS011;373;49.342;8.146;2023-04-03T11:12:51;1.05;;;0.90;;
823;SDS011;373;49.342;8.146;2023-04-03T11:15:23;2.25;;;1.20;;
823;SDS011;373;49.342;8.146;2023-04-03T11:17:53;1.90;;;0.95;;
823;SDS011;373;49.342;8.146;2023-04-03T11:20:25;1.38;;;1.05;;
823;SDS011;373;49.342;8.146;2023-04-03T11:22:58;1.52;;;1.00;;
823;SDS011;373;49.342;8.146;2023-04-03T11:25:29;1.75;;;1.20;;
823;SDS011;373;49.342;8.146;2023-04-03T11:27:58;0.80;;;0.70;;
823;SDS011;373;49.342;8.146;2023-04-03T11:30:28;3.35;;;1.10;;
823;SDS011;373;49.342;8.146;2023-04-03T11:35:52;2.28;;;1.20;;
823;SDS011;373;49.342;8.146;2023-04-03T11:38:25;1.48;;;0.80;;
823;SDS011;373;49.342;8.146;2023-04-03T11:40:55;1.55;;;0.90;;
823;SDS011;373;49.342;8.146;2023-04-03T11:43:25;1.27;;;0.75;;
823;SDS011;373;49.342;8.146;2023-04-03T11:45:55;2.13;;;0.85;;
823;SDS011;373;49.342;8.146;2023-04-03T11:48:47;1.83;;;0.80;;
823;SDS011;373;49.342;8.146;2023-04-03T11:51:38;1.73;;;0.88;;
823;SDS011;373;49.342;8.146;2023-04-03T12:00:45;1.55;;;0.98;;
823;SDS011;373;49.342;8.146;2023-04-03T12:09:27;0.95;;;0.63;;
823;SDS011;373;49.342;8.146;2023-04-03T12:12:29;2.13;;;1.48;;
823;SDS011;373;49.342;8.146;2023-04-03T12:17:53;1.00;;;0.82;;
823;SDS011;373;49.342;8.146;2023-04-03T12:23:24;1.50;;;0.90;;
823;SDS011;373;49.342;8.146;2023-04-03T12:25:59;1.30;;;0.85;;
823;SDS011;373;49.342;8.146;2023-04-03T12:28:38;2.17;;;1.05;;
823;SDS011;373;49.342;8.146;2023-04-03T12:31:05;1.65;;;1.10;;
823;SDS011;373;49.342;8.146;2023-04-03T12:33:38;1.42;;;0.90;;
823;SDS011;373;49.342;8.146;2023-04-03T12:36:26;2.05;;;0.90;;
823;SDS011;373;49.342;8.146;2023-04-03T12:39:02;1.45;;;0.77;;
823;SDS011;373;49.342;8.146;2023-04-03T12:41:38;2.85;;;0.82;;
823;SDS011;373;49.342;8.146;2023-04-03T12:44:17;1.42;;;0.90;;
823;SDS011;373;49.342;8.146;2023-04-03T12:46:53;1.88;;;1.02;;
823;SDS011;373;49.342;8.146;2023-04-03T12:49:24;1.27;;;0.95;;
823;SDS011;373;49.342;8.146;2023-04-03T12:52:00;2.25;;;0.93;;
823;SDS011;373;49.342;8.146;2023-04-03T12:54:35;2.15;;;0.93;;
823;SDS011;373;49.342;8.146;2023-04-03T12:57:11;0.70;;;0.70;;
823;SDS011;373;49.342;8.146;2023-04-03T12:59:39;3.22;;;1.15;;
823;SDS011;373;49.342;8.146;2023-04-03T13:02:23;1.65;;;0.80;;
823;SDS011;373;49.342;8.146;2023-04-03T13:04:52;1.10;;;1.00;;
823;SDS011;373;49.342;8.146;2023-04-03T13:07:24;2.05;;;0.82;;
823;SDS011;373;49.342;8.146;2023-04-03T13:09:58;1.80;;;1.02;;
823;SDS011;373;49.342;8.146;2023-04-03T13:12:33;2.05;;;0.80;;
823;SDS011;373;49.342;8.146;2023-04-03T13:15:03;1.25;;;1.05;;
823;SDS011;373;49.342;8.146;2023-04-03T13:17:40;2.65;;;1.10;;
823;SDS011;373;49.342;8.146;2023-04-03T13:20:12;1.52;;;1.05;;
823;SDS011;373;49.342;8.146;2023-04-03T13:22:46;2.83;;;0.88;;
823;SDS011;373;49.342;8.146;2023-04-03T13:25:18;2.63;;;0.73;;
823;SDS011;373;49.342;8.146;2023-04-03T13:27:47;1.20;;;0.88;;
823;SDS011;373;49.342;8.146;2023-04-03T13:30:18;1.48;;;0.75;;
823;SDS011;373;49.342;8.146;2023-04-03T13:32:52;2.85;;;1.00;;
823;SDS011;373;49.342;8.146;2023-04-03T13:35:27;1.45;;;0.98;;
823;SDS011;373;49.342;8.146;2023-04-03T13:37:57;1.90;;;1.20;;
823;SDS011;373;49.342;8.146;2023-04-03T13:40:27;1.45;;;0.98;;
823;SDS011;373;49.342;8.146;2023-04-03T13:43:02;3.90;;;1.10;;
823;SDS011;373;49.342;8.146;2023-04-03T13:45:31;1.50;;;1.08;;
823;SDS011;373;49.342;8.146;2023-04-03T13:48:10;1.30;;;0.82;;
823;SDS011;373;49.342;8.146;2023-04-03T13:50:51;1.30;;;0.95;;
823;SDS011;373;49.342;8.146;2023-04-03T13:53:20;2.28;;;0.88;;
823;SDS011;373;49.342;8.146;2023-04-03T13:55:57;2.30;;;1.00;;
823;SDS011;373;49.342;8.146;2023-04-03T13:58:27;2.33;;;1.25;;
823;SDS011;373;49.342;8.146;2023-04-03T14:00:56;1.77;;;0.90;;
823;SDS011;373;49.342;8.146;2023-04-03T14:03:34;3.90;;;0.98;;
823;SDS011;373;49.342;8.146;2023-04-03T14:06:10;3.53;;;1.50;;
823;SDS011;373;49.342;8.146;2023-04-03T14:08:39;1.60;;;0.98;;
823;SDS011;373;49.342;8.146;2023-04-03T14:11:10;1.48;;;1.17;;
823;SDS011;373;49.342;8.146;2023-04-03T14:13:41;2.80;;;1.20;;
823;SDS011;373;49.342;8.146;2023-04-03T14:16:11;1.30;;;1.20;;
823;SDS011;373;49.342;8.146;2023-04-03T14:18:42;2.78;;;1.30;;
823;SDS011;373;49.342;8.146;2023-04-03T14:21:11;2.45;;;1.20;;
823;SDS011;373;49.342;8.146;2023-04-03T14:23:39;1.98;;;1.33;;
823;SDS011;373;49.342;8.146;2023-04-03T14:26:09;1.73;;;0.93;;
823;SDS011;373;49.342;8.146;2023-04-03T14:28:39;2.80;;;1.60;;
823;SDS011;373;49.342;8.146;2023-04-03T14:31:06;2.90;;;1.23;;
823;SDS011;373;49.342;8.146;2023-04-03T14:33:33;1.88;;;1.42;;
823;SDS011;373;49.342;8.146;2023-04-03T14:36:04;2.15;;;1.50;;
823;SDS011;373;49.342;8.146;2023-04-03T14:38:37;2.72;;;1.65;;
823;SDS011;373;49.342;8.146;2023-04-03T14:41:05;2.95;;;1.40;;
823;SDS011;373;49.342;8.146;2023-04-03T14:43:34;2.20;;;1.30;;
823;SDS011;373;49.342;8.146;2023-04-03T14:46:01;2.85;;;1.15;;
823;SDS011;373;49.342;8.146;2023-04-03T14:48:28;2.05;;;1.52;;
823;SDS011;373;49.342;8.146;2023-04-03T14:50:56;2.35;;;1.20;;
823;SDS011;373;49.342;8.146;2023-04-03T14:53:23;1.60;;;0.82;;
823;SDS011;373;49.342;8.146;2023-04-03T14:55:51;2.30;;;1.15;;
823;SDS011;373;49.342;8.146;2023-04-03T14:58:19;1.77;;;1.48;;
823;SDS011;373;49.342;8.146;2023-04-03T15:00:48;2.75;;;1.20;;
823;SDS011;373;49.342;8.146;2023-04-03T15:03:16;1.27;;;1.00;;
823;SDS011;373;49.342;8.146;2023-04-03T15:05:46;1.90;;;1.27;;
823;SDS011;373;49.342;8.146;2023-04-03T15:08:17;0.98;;;0.88;;
823;SDS011;373;49.342;8.146;2023-04-03T15:10:47;1.25;;;1.15;;
823;SDS011;373;49.342;8.146;2023-04-03T15:13:15;2.28;;;1.13;;
823;SDS011;373;49.342;8.146;2023-04-03T15:15:42;2.22;;;1.50;;
823;SDS011;373;49.342;8.146;2023-04-03T15:18:12;3.83;;;1.20;;
823;SDS011;373;49.342;8.146;2023-04-03T15:20:43;2.90;;;1.40;;
823;SDS011;373;49.342;8.146;2023-04-03T15:23:11;2.22;;;1.05;;
823;SDS011;373;49.342;8.146;2023-04-03T15:25:42;1.73;;;1.30;;
823;SDS011;373;49.342;8.146;2023-04-03T15:28:11;1.65;;;1.00;;
823;SDS011;373;49.342;8.146;2023-04-03T15:30:45;3.97;;;1.30;;
823;SDS011;373;49.342;8.146;2023-04-03T15:33:14;2.70;;;1.52;;
823;SDS011;373;49.342;8.146;2023-04-03T15:35:41;2.95;;;1.38;;
823;SDS011;373;49.342;8.146;2023-04-03T15:38:09;1.63;;;1.05;;
823;SDS011;373;49.342;8.146;2023-04-03T15:40:36;2.13;;;1.40;;
823;SDS011;373;49.342;8.146;2023-04-03T15:43:04;2.20;;;1.08;;
823;SDS011;373;49.342;8.146;2023-04-03T15:45:31;2.75;;;1.25;;
823;SDS011;373;49.342;8.146;2023-04-03T15:48:01;2.00;;;1.20;;
823;SDS011;373;49.342;8.146;2023-04-03T15:50:30;1.67;;;0.95;;
823;SDS011;373;49.342;8.146;2023-04-03T15:52:58;1.70;;;0.98;;
823;SDS011;373;49.342;8.146;2023-04-03T15:55:27;2.45;;;1.20;;
823;SDS011;373;49.342;8.146;2023-04-03T15:57:55;2.47;;;1.27;;
823;SDS011;373;49.342;8.146;2023-04-03T16:00:23;1.73;;;1.08;;
823;SDS011;373;49.342;8.146;2023-04-03T16:02:52;1.70;;;1.15;;
823;SDS011;373;49.342;8.146;2023-04-03T16:05:22;2.83;;;1.30;;
823;SDS011;373;49.342;8.146;2023-04-03T16:07:51;1.67;;;0.95;;
823;SDS011;373;49.342;8.146;2023-04-03T16:10:19;1.73;;;1.42;;
823;SDS011;373;49.342;8.146;2023-04-03T16:12:46;2.17;;;1.35;;
823;SDS011;373;49.342;8.146;2023-04-03T16:15:13;2.50;;;1.30;;
823;SDS011;373;49.342;8.146;2023-04-03T16:17:40;2.45;;;1.30;;
823;SDS011;373;49.342;8.146;2023-04-03T16:20:08;2.42;;;1.38;;
823;SDS011;373;49.342;8.146;2023-04-03T16:22:37;1.98;;;1.50;;
823;SDS011;373;49.342;8.146;2023-04-03T16:25:06;2.50;;;1.17;;
823;SDS011;373;49.342;8.146;2023-04-03T16:27:35;1.67;;;1.30;;
823;SDS011;373;49.342;8.146;2023-04-03T16:30:02;3.35;;;1.15;;